Time;durP1;ratioP1;P1;durP2;ratioP2;P2;SDS_P1;SDS_P2;PMS_P1;PMS_P2;Temp;Humidity;BMP_temperature;BMP_pressure;BME280_temperature;BME280_humidity;BME280_pressure;Samples;Min_cycle;Max_cycle;Signal;HPM_P1;HPM_P2
2023/01/24 00:01:26;;;;;;;59.78;27.95;;;-0.40;99.90;;;;;;5088162;28;20491;-63
2023/01/24 00:04:00;;;;;;;58.25;27.17;;;-0.40;99.90;;;;;;5099538;28;20044;-60
2023/01/24 00:06:28;;;;;;;58.70;25.70;;;-0.40;99.90;;;;;;5103786;28;20051;-59
2023/01/24 00:08:59;;;;;;;59.22;27.10;;;-0.40;99.90;;;;;;5108311;28;20040;-64
2023/01/24 00:11:27;;;;;;;59.70;27.10;;;-0.40;99.90;;;;;;5108805;28;20044;-59
2023/01/24 00:13:56;;;;;;;56.05;29.02;;;-0.50;99.90;;;;;;5109664;28;20055;-62
2023/01/24 00:16:24;;;;;;;57.15;27.70;;;-0.40;99.90;;;;;;5098682;28;20647;-60
2023/01/24 00:18:56;;;;;;;61.13;27.38;;;;;;;;;;5099283;28;20036;-62
2023/01/24 00:21:24;;;;;;;62.40;28.05;;;-0.50;99.90;;;;;;5104548;28;20047;-58
2023/01/24 00:23:55;;;;;;;55.05;26.33;;;-0.50;99.90;;;;;;5105645;28;20043;-57
2023/01/24 00:26:24;;;;;;;64.47;28.08;;;-0.50;99.90;;;;;;5107369;28;20048;-63
2023/01/24 00:28:53;;;;;;;52.30;27.15;;;-0.50;99.90;;;;;;5114675;28;20051;-61
2023/01/24 00:31:23;;;;;;;57.55;27.20;;;-0.50;99.90;;;;;;5115772;28;20043;-61
2023/01/24 00:33:52;;;;;;;60.08;26.77;;;-0.60;99.90;;;;;;5113973;28;20070;-62
2023/01/24 00:36:20;;;;;;;59.35;28.20;;;-0.50;99.90;;;;;;5090791;28;20040;-63
2023/01/24 00:38:48;;;;;;;60.35;29.17;;;-0.60;99.90;;;;;;5101309;28;20047;-61
2023/01/24 00:41:16;;;;;;;67.00;29.20;;;-0.60;99.90;;;;;;5107860;28;20048;-62
2023/01/24 00:43:44;;;;;;;60.10;28.55;;;-0.50;99.90;;;;;;5132257;27;20047;-62
2023/01/24 00:46:11;;;;;;;64.03;29.65;;;-0.60;99.90;;;;;;5100374;27;20063;-58
2023/01/24 00:48:42;;;;;;;60.63;28.98;;;-0.60;99.90;;;;;;5095896;28;20410;-59
2023/01/24 00:51:19;;;;;;;59.63;29.05;;;-0.60;99.90;;;;;;5077934;28;20056;-59
2023/01/24 00:53:47;;;;;;;68.55;29.77;;;-0.60;99.90;;;;;;5109616;27;20044;-58
2023/01/24 00:56:15;;;;;;;61.28;27.92;;;-0.60;99.90;;;;;;5107057;28;20414;-58
2023/01/24 00:58:46;;;;;;;62.22;26.83;;;-0.50;99.90;;;;;;5093402;28;20035;-58
2023/01/24 01:01:14;;;;;;;55.88;26.75;;;-0.60;99.90;;;;;;5105628;27;20062;-59
2023/01/24 01:03:44;;;;;;;52.13;27.48;;;-0.60;99.90;;;;;;5108761;27;20039;-58
2023/01/24 01:06:15;;;;;;;56.75;27.15;;;-0.60;99.90;;;;;;5108700;27;20043;-58
2023/01/24 01:08:45;;;;;;;55.83;25.55;;;-0.60;99.90;;;;;;5105665;27;20062;-58
2023/01/24 01:11:13;;;;;;;61.45;27.60;;;-0.60;99.90;;;;;;5094211;28;20524;-58
2023/01/24 01:13:41;;;;;;;55.75;25.63;;;-0.70;99.90;;;;;;5109896;28;20061;-58
2023/01/24 01:16:19;;;;;;;52.58;26.92;;;-0.70;99.90;;;;;;5075608;28;20044;-58
2023/01/24 01:18:48;;;;;;;53.90;25.83;;;-0.70;99.90;;;;;;5086673;27;20358;-58
2023/01/24 01:21:25;;;;;;;57.33;25.90;;;-0.80;99.90;;;;;;5079079;28;20066;-57
2023/01/24 01:23:59;;;;;;;67.22;28.95;;;-0.70;99.90;;;;;;5104873;27;20040;-59
2023/01/24 01:26:32;;;;;;;61.30;27.70;;;-0.70;99.90;;;;;;5084951;28;20425;-59
2023/01/24 01:29:03;;;;;;;67.22;28.38;;;-0.80;99.90;;;;;;5073563;28;20044;-59
2023/01/24 01:31:51;;;;;;;61.60;27.23;;;-0.80;99.90;;;;;;5112668;27;20055;-59
2023/01/24 01:34:20;;;;;;;59.90;26.13;;;-0.80;99.90;;;;;;5092438;28;20047;-59
2023/01/24 01:36:48;;;;;;;55.95;27.30;;;-0.80;99.90;;;;;;5104359;27;20645;-58
2023/01/24 01:39:16;;;;;;;54.05;26.50;;;-0.80;99.90;;;;;;5111017;28;20378;-58
2023/01/24 01:41:44;;;;;;;53.38;23.10;;;-0.80;99.90;;;;;;5099420;28;20475;-59
2023/01/24 01:44:43;;;;;;;57.17;24.75;;;-0.90;99.90;;;;;;5107765;28;20508;-59
2023/01/24 01:47:31;;;;;;;57.88;26.35;;;-0.90;99.90;;;;;;5092463;28;20047;-59
2023/01/24 01:50:02;;;;;;;57.47;25.63;;;-0.90;99.90;;;;;;5108158;28;20058;-60
2023/01/24 01:52:35;;;;;;;59.13;27.20;;;-0.90;99.90;;;;;;5115803;27;20044;-58
2023/01/24 01:55:12;;;;;;;64.78;24.60;;;-0.90;99.90;;;;;;5092243;28;20043;-58
2023/01/24 01:57:40;;;;;;;54.95;25.58;;;-0.90;99.90;;;;;;5109220;27;20511;-59
2023/01/24 02:00:16;;;;;;;62.15;26.30;;;-0.90;99.90;;;;;;5114013;27;20065;-59
2023/01/24 02:06:02;;;;;;;54.53;25.08;;;-0.90;99.90;;;;;;5121838;27;20509;-58
2023/01/24 02:08:33;;;;;;;64.05;24.85;;;-1.00;99.90;;;;;;5111461;28;20044;-59
2023/01/24 02:16:02;;;;;;;63.42;26.50;;;-1.00;99.90;;;;;;5107188;28;20501;-64
2023/01/24 02:16:41;;;;;;;56.10;25.20;;;-1.00;99.90;;;;;;5091047;27;20040;-62
2023/01/24 02:19:24;;;;;;;55.03;24.98;;;-1.00;99.90;;;;;;5120042;27;20039;-63
2023/01/24 02:21:58;;;;;;;58.33;27.52;;;-1.00;99.90;;;;;;5108825;27;20044;-64
2023/01/24 02:24:52;;;;;;;52.92;24.55;;;-1.00;99.90;;;;;;5093314;28;20055;-63
2023/01/24 02:27:23;;;;;;;55.10;24.97;;;-1.00;99.90;;;;;;5092076;27;20044;-63
2023/01/24 02:29:51;;;;;;;57.65;25.58;;;-1.00;99.90;;;;;;5110950;27;20470;-60
2023/01/24 02:32:23;;;;;;;59.97;27.48;;;-1.00;99.90;;;;;;5092721;27;20032;-65
2023/01/24 02:34:58;;;;;;;60.50;27.15;;;-1.00;99.90;;;;;;5090830;28;20046;-62
2023/01/24 02:37:36;;;;;;;52.15;24.83;;;-1.00;99.90;;;;;;5103115;27;20059;-62
2023/01/24 02:40:09;;;;;;;52.95;24.83;;;-1.10;99.90;;;;;;5093917;28;20051;-62
2023/01/24 02:42:38;;;;;;;52.33;24.23;;;-1.10;99.90;;;;;;5093057;28;20043;-62
2023/01/24 02:45:23;;;;;;;47.70;23.38;;;-1.10;99.90;;;;;;5112185;28;20040;-63
2023/01/24 02:47:53;;;;;;;46.85;22.60;;;-1.10;99.90;;;;;;5112391;27;20047;-61
2023/01/24 02:53:29;;;;;;;56.08;24.50;;;-1.10;99.90;;;;;;5093037;28;20059;-62
2023/01/24 02:53:29;;;;;;;50.70;24.48;;;-1.20;99.90;;;;;;5092369;28;20506;-61
2023/01/24 02:58:46;;;;;;;60.03;25.23;;;-1.10;99.90;;;;;;5118795;27;20043;-60
2023/01/24 03:01:18;;;;;;;46.83;22.77;;;-1.10;99.90;;;;;;5093390;28;20043;-61
2023/01/24 03:03:55;;;;;;;46.53;22.48;;;-1.20;99.90;;;;;;5120792;27;20044;-63
2023/01/24 03:06:23;;;;;;;55.28;24.92;;;-1.20;99.90;;;;;;5127808;27;20051;-63
2023/01/24 03:08:52;;;;;;;56.38;24.35;;;-1.20;99.90;;;;;;5093349;28;20044;-60
2023/01/24 03:11:29;;;;;;;53.17;25.35;;;0.90;99.90;;;;;;5110900;28;20382;-62
2023/01/24 03:36:19;;;;;;;47.97;22.17;;;-1.20;99.90;;;;;;5098027;28;20507;-60
2023/01/24 03:41:38;;;;;;;54.22;24.77;;;-1.30;99.90;;;;;;5093014;28;20494;-62
2023/01/24 03:44:18;;;;;;;58.05;23.85;;;-1.30;99.90;;;;;;5105878;28;20051;-63
2023/01/24 03:46:47;;;;;;;54.35;23.88;;;-1.30;99.90;;;;;;5095486;28;20510;-58
2023/01/24 03:49:17;;;;;;;48.10;25.73;;;-1.30;99.90;;;;;;5093222;28;20051;-63
2023/01/24 03:54:32;;;;;;;51.90;21.60;;;-1.30;99.90;;;;;;5111759;28;20043;-60
2023/01/24 03:57:09;;;;;;;55.70;24.77;;;-1.30;99.90;;;;;;5093374;28;20040;-65
2023/01/24 03:59:37;;;;;;;63.92;23.77;;;-1.30;99.90;;;;;;5093403;28;20039;-63
2023/01/24 04:02:04;;;;;;;53.50;23.23;;;-1.30;99.90;;;;;;5093430;28;20050;-62
2023/01/24 04:07:24;;;;;;;51.67;23.42;;;-1.30;99.90;;;;;;5113764;28;20043;-62
2023/01/24 04:10:01;;;;;;;47.85;21.88;;;-1.40;99.90;;;;;;5113538;28;20036;-58
2023/01/24 04:12:36;;;;;;;48.55;20.67;;;-1.40;99.90;;;;;;5114488;27;20047;-62
2023/01/24 04:15:05;;;;;;;48.05;20.92;;;-1.40;99.90;;;;;;5115503;28;20398;-63
2023/01/24 04:17:34;;;;;;;46.58;22.17;;;-1.40;99.90;;;;;;5096600;28;20062;-60
2023/01/24 04:20:05;;;;;;;52.35;23.27;;;-1.40;99.90;;;;;;5096976;28;20039;-62
2023/01/24 04:22:33;;;;;;;57.80;23.55;;;-1.40;99.90;;;;;;5114946;28;20528;-59
2023/01/24 04:25:04;;;;;;;50.17;22.42;;;-1.50;99.90;;;;;;5098530;28;20039;-64
2023/01/24 04:27:35;;;;;;;44.28;22.73;;;-1.50;99.90;;;;;;5096871;28;20050;-62
2023/01/24 04:30:13;;;;;;;48.63;21.40;;;-1.50;99.90;;;;;;5096425;28;20059;-61
2023/01/24 04:32:44;;;;;;;44.97;21.92;;;-1.40;99.90;;;;;;5097022;28;20494;-63
2023/01/24 04:35:24;;;;;;;;;;;-1.40;99.90;;;;;;5117692;27;20042;-64
2023/01/24 04:38:02;;;;;;;49.88;21.58;;;-1.50;99.90;;;;;;5117229;27;19942;-63
2023/01/24 04:40:37;;;;;;;47.80;21.95;;;-1.40;99.90;;;;;;5110821;28;20032;-62
2023/01/24 04:43:08;;;;;;;48.63;21.45;;;-1.50;99.90;;;;;;5130855;27;20039;-62
2023/01/24 04:45:38;;;;;;;50.05;22.45;;;;;;;;;;5096995;28;20043;-61
2023/01/24 04:48:17;;;;;;;45.40;21.60;;;-1.50;99.90;;;;;;5096835;28;20051;-61
2023/01/24 04:50:45;;;;;;;47.00;22.23;;;-1.50;99.90;;;;;;5096639;28;20043;-63
2023/01/24 04:53:17;;;;;;;61.83;26.13;;;-1.50;99.90;;;;;;5096642;28;20040;-63
2023/01/24 04:55:46;;;;;;;62.42;28.25;;;-1.50;99.90;;;;;;5096311;28;20082;-63
2023/01/24 04:58:15;;;;;;;51.22;24.30;;;-1.50;99.90;;;;;;5096616;28;20513;-63
2023/01/24 05:00:43;;;;;;;50.03;23.42;;;-1.50;99.90;;;;;;5096537;28;20433;-62
2023/01/24 05:03:11;;;;;;;54.92;24.55;;;-1.50;99.90;;;;;;5097844;27;20048;-64
2023/01/24 05:05:39;;;;;;;53.85;23.85;;;-1.50;99.90;;;;;;5114638;27;20376;-63
2023/01/24 05:08:08;;;;;;;50.83;22.80;;;-1.50;99.90;;;;;;5093812;28;20051;-63
2023/01/24 05:10:41;;;;;;;51.35;22.10;;;-1.50;99.90;;;;;;5110620;27;20047;-64
2023/01/24 05:13:12;;;;;;;47.38;21.02;;;-1.50;99.90;;;;;;5091681;28;20050;-60
2023/01/24 05:15:50;;;;;;;53.22;23.35;;;-1.60;99.90;;;;;;5075928;28;20032;-64
2023/01/24 05:18:19;;;;;;;53.78;23.80;;;-1.60;99.90;;;;;;5101108;28;20054;-63
2023/01/24 05:20:47;;;;;;;52.75;23.02;;;-1.60;99.90;;;;;;5096123;28;20050;-61
2023/01/24 05:23:14;;;;;;;46.92;21.23;;;-1.60;99.90;;;;;;5106660;28;20482;-64
2023/01/24 05:25:46;;;;;;;46.40;21.38;;;-1.60;99.90;;;;;;5109845;28;20048;-62
2023/01/24 05:28:14;;;;;;;50.70;22.77;;;-1.60;99.90;;;;;;5109296;28;20047;-63
2023/01/24 05:30:47;;;;;;;45.25;21.20;;;-1.60;99.90;;;;;;5093476;28;20052;-62
2023/01/24 05:33:26;;;;;;;53.77;21.80;;;-1.70;99.90;;;;;;5093132;28;20415;-64
2023/01/24 05:36:02;;;;;;;51.38;21.95;;;-1.70;99.90;;;;;;5113953;28;20107;-60
2023/01/24 05:38:33;;;;;;;46.72;21.38;;;-1.70;99.90;;;;;;5112592;28;20039;-63
2023/01/24 05:41:05;;;;;;;57.90;26.60;;;-1.70;99.90;;;;;;5113795;28;20051;-62
2023/01/24 05:43:37;;;;;;;50.25;22.42;;;-1.70;99.90;;;;;;5095696;28;20038;-63
2023/01/24 05:46:08;;;;;;;62.67;24.85;;;-1.10;99.90;;;;;;5095577;28;20058;-64
2023/01/24 05:48:45;;;;;;;47.30;21.95;;;-1.70;99.90;;;;;;5087241;28;20041;-61
2023/01/24 05:51:16;;;;;;;48.75;22.27;;;-1.70;99.90;;;;;;5109050;27;20051;-63
2023/01/24 05:53:44;;;;;;;49.95;23.20;;;-1.70;99.90;;;;;;5108068;28;20035;-62
2023/01/24 05:56:18;;;;;;;54.20;22.25;;;-1.70;99.90;;;;;;5108820;28;20055;-62
2023/01/24 05:58:48;;;;;;;48.38;21.48;;;-1.70;99.90;;;;;;5097012;28;20050;-63
2023/01/24 06:01:21;;;;;;;46.80;21.67;;;-1.70;99.90;;;;;;5085542;28;20033;-62
2023/01/24 06:03:52;;;;;;;52.28;22.70;;;-1.80;99.90;;;;;;5083870;27;20043;-63
2023/01/24 06:06:22;;;;;;;51.40;22.90;;;-1.80;99.90;;;;;;5086861;28;20044;-63
2023/01/24 06:08:50;;;;;;;57.80;24.67;;;-1.80;99.90;;;;;;5118637;27;20125;-63
2023/01/24 06:11:40;;;;;;;51.83;24.63;;;-1.80;99.90;;;;;;5128138;27;20050;-64
2023/01/24 06:14:17;;;;;;;55.97;24.23;;;-1.80;99.90;;;;;;5109927;28;20031;-62
2023/01/24 06:16:47;;;;;;;54.83;24.48;;;-1.80;99.90;;;;;;5093452;28;20051;-61
2023/01/24 06:19:17;;;;;;;51.90;23.35;;;-1.80;99.90;;;;;;5092408;28;20375;-62
2023/01/24 06:21:54;;;;;;;47.07;20.90;;;-1.80;99.90;;;;;;5125525;27;20062;-61
2023/01/24 06:24:26;;;;;;;52.33;22.88;;;-1.90;99.90;;;;;;5069480;28;20040;-63
2023/01/24 06:27:14;;;;;;;46.08;22.20;;;-1.80;99.90;;;;;;5086480;28;20048;-64
2023/01/24 06:29:42;;;;;;;47.95;22.42;;;-1.90;99.90;;;;;;5110986;28;20048;-64
2023/01/24 06:33:02;;;;;;;50.28;21.67;;;-1.90;99.90;;;;;;5113573;27;20065;-64
2023/01/24 06:36:08;;;;;;;51.78;22.15;;;-1.90;99.90;;;;;;5072697;28;20530;-62
2023/01/24 06:38:36;;;;;;;53.70;22.63;;;-1.90;99.90;;;;;;5100450;28;20036;-60
2023/01/24 06:41:16;;;;;;;52.67;23.42;;;-1.90;99.90;;;;;;5090296;28;20552;-62
2023/01/24 06:43:44;;;;;;;;;;;-1.90;99.90;;;;;;5119815;27;20044;-64
2023/01/24 06:46:13;;;;;;;49.42;21.45;;;-1.90;99.90;;;;;;5110892;28;20393;-64
2023/01/24 06:48:42;;;;;;;;;;;-1.90;99.90;;;;;;5125259;27;20417;-59
2023/01/24 06:51:13;;;;;;;50.03;21.33;;;-1.90;99.90;;;;;;5095605;27;20381;-64
2023/01/24 06:53:41;;;;;;;44.00;20.88;;;-1.90;99.90;;;;;;5106042;28;20062;-57
2023/01/24 06:56:09;;;;;;;51.40;22.10;;;-1.70;99.90;;;;;;5072888;28;20051;-59
2023/01/24 06:58:47;;;;;;;51.92;23.77;;;-1.90;99.90;;;;;;5125151;27;20043;-57
2023/01/24 07:01:14;;;;;;;52.03;24.33;;;-1.90;99.90;;;;;;5129986;27;20047;-59
2023/01/24 07:03:45;;;;;;;52.58;23.17;;;-1.90;99.90;;;;;;5108569;27;20399;-59
2023/01/24 07:06:13;;;;;;;64.25;25.85;;;-1.90;99.90;;;;;;5091244;28;20048;-60
2023/01/24 07:08:41;;;;;;;59.67;24.33;;;-1.90;99.90;;;;;;5103439;28;20042;-59
2023/01/24 07:11:09;;;;;;;50.58;23.42;;;-1.90;99.90;;;;;;5109475;28;20402;-58
2023/01/24 07:13:39;;;;;;;51.63;23.02;;;-1.80;99.90;;;;;;5107665;28;20052;-60
2023/01/24 07:16:10;;;;;;;52.15;21.92;;;-1.70;99.90;;;;;;5110732;28;20043;-60
2023/01/24 07:18:38;;;;;;;60.25;24.20;;;-1.70;99.90;;;;;;5110307;28;20490;-62
2023/01/24 07:21:08;;;;;;;42.70;20.67;;;-1.60;99.90;;;;;;5094915;27;20040;-62
2023/01/24 07:23:46;;;;;;;54.42;22.73;;;-1.50;99.90;;;;;;5107047;28;20044;-65
2023/01/24 07:26:17;;;;;;;52.88;23.92;;;-1.50;99.90;;;;;;5109897;28;20052;-60
2023/01/24 07:28:45;;;;;;;50.97;22.17;;;-1.40;99.90;;;;;;5096655;28;20036;-61
2023/01/24 07:31:14;;;;;;;56.85;24.27;;;-1.30;99.90;;;;;;5110261;28;20054;-62
2023/01/24 07:33:43;;;;;;;56.15;25.65;;;;;;;;;;5109795;28;20048;-62
2023/01/24 07:36:14;;;;;;;61.08;25.77;;;-1.20;99.90;;;;;;5103036;28;20039;-65
2023/01/24 07:38:45;;;;;;;60.60;27.08;;;-1.10;99.90;;;;;;5106744;28;20052;-62
2023/01/24 07:41:13;;;;;;;66.22;27.90;;;-1.10;99.90;;;;;;5107507;28;20044;-64
2023/01/24 07:43:46;;;;;;;57.78;26.17;;;-1.00;99.90;;;;;;5109731;28;20489;-62
2023/01/24 07:46:14;;;;;;;50.75;22.70;;;-0.90;99.90;;;;;;5109687;28;20074;-64
2023/01/24 07:48:45;;;;;;;52.20;25.10;;;-0.90;99.90;;;;;;5110384;28;20055;-59
2023/01/24 07:51:13;;;;;;;53.20;23.80;;;-0.80;99.90;;;;;;5096827;27;20048;-59
2023/01/24 07:53:50;;;;;;;49.03;24.13;;;-0.80;99.90;;;;;;5110587;27;20062;-59
2023/01/24 07:56:18;;;;;;;56.97;24.02;;;-0.80;99.90;;;;;;5112666;27;20057;-61
2023/01/24 07:58:53;;;;;;;49.03;23.20;;;-0.80;99.90;;;;;;5116734;27;20430;-63
2023/01/24 08:01:23;;;;;;;54.70;23.90;;;-0.70;99.90;;;;;;5106550;27;20043;-64
2023/01/24 08:03:58;;;;;;;53.75;24.55;;;-0.60;99.90;;;;;;5113623;27;20520;-61
2023/01/24 08:06:26;;;;;;;47.50;24.08;;;-0.60;99.90;;;;;;5083221;28;20036;-63
2023/01/24 08:08:57;;;;;;;53.90;24.10;;;-0.60;99.90;;;;;;5109287;28;20058;-62
2023/01/24 08:11:28;;;;;;;58.30;24.20;;;-0.50;99.90;;;;;;5109584;28;20046;-59
2023/01/24 08:13:56;;;;;;;50.17;25.52;;;-0.60;99.90;;;;;;5110358;28;20399;-63
2023/01/24 08:16:28;;;;;;;54.22;24.45;;;-0.50;99.90;;;;;;5110378;28;20035;-63
2023/01/24 08:18:55;;;;;;;54.05;23.52;;;-0.40;99.90;;;;;;5092027;28;20071;-64
2023/01/24 08:21:23;;;;;;;53.60;22.98;;;-0.40;99.90;;;;;;5096688;28;20414;-63
2023/01/24 08:23:51;;;;;;;58.40;24.98;;;-0.40;99.90;;;;;;5104981;28;20050;-61
2023/01/24 08:26:19;;;;;;;57.92;26.13;;;-0.30;99.90;;;;;;5109811;28;20481;-59
2023/01/24 08:28:48;;;;;;;56.95;24.88;;;-0.30;99.90;;;;;;5124596;27;20043;-62
2023/01/24 08:31:16;;;;;;;55.95;26.17;;;-0.30;99.90;;;;;;5113245;27;20042;-65
2023/01/24 08:33:47;;;;;;;62.67;27.33;;;-0.20;99.90;;;;;;5113660;27;20421;-64
2023/01/24 08:36:15;;;;;;;54.63;27.40;;;-0.20;99.90;;;;;;5101393;27;20040;-61
2023/01/24 08:38:42;;;;;;;57.78;27.33;;;-0.20;99.90;;;;;;5103048;27;20052;-64
2023/01/24 08:41:13;;;;;;;55.63;27.95;;;-0.10;99.90;;;;;;5110517;28;20521;-61
2023/01/24 08:43:42;;;;;;;51.95;24.67;;;-0.10;99.90;;;;;;5112795;28;20047;-62
2023/01/24 08:46:09;;;;;;;63.15;27.38;;;0.00;99.90;;;;;;5113437;28;20050;-61
2023/01/24 08:48:37;;;;;;;63.85;26.48;;;0.00;99.90;;;;;;5094131;28;20043;-62
2023/01/24 08:51:06;;;;;;;57.25;26.45;;;0.10;99.90;;;;;;5091141;28;20458;-63
2023/01/24 08:53:34;;;;;;;66.85;28.02;;;0.10;99.90;;;;;;5120493;27;20518;-64
2023/01/24 08:56:02;;;;;;;58.83;26.63;;;0.20;99.90;;;;;;5133944;27;20047;-65
2023/01/24 08:58:33;;;;;;;61.67;27.00;;;0.20;99.90;;;;;;5102050;28;20039;-61
2023/01/24 09:01:09;;;;;;;57.70;25.83;;;0.30;99.90;;;;;;5095324;28;20129;-63
2023/01/24 09:03:37;;;;;;;54.17;25.27;;;0.40;99.90;;;;;;5112763;27;20050;-59
2023/01/24 09:06:05;;;;;;;65.32;26.98;;;0.40;99.90;;;;;;5109122;28;20047;-58
2023/01/24 09:08:33;;;;;;;62.60;26.83;;;0.50;99.90;;;;;;5094604;28;20069;-58
2023/01/24 09:11:02;;;;;;;63.47;26.40;;;0.50;99.90;;;;;;5112518;28;20872;-59
2023/01/24 09:13:31;;;;;;;60.47;26.42;;;0.60;99.90;;;;;;5112474;28;20055;-58
2023/01/24 09:15:59;;;;;;;62.50;26.80;;;0.70;99.90;;;;;;5112606;28;20054;-60
2023/01/24 09:18:26;;;;;;;60.60;27.88;;;0.80;99.90;;;;;;5111914;28;20039;-57
2023/01/24 09:20:54;;;;;;;63.78;26.67;;;0.90;99.90;;;;;;5107442;27;20051;-58
2023/01/24 09:23:22;;;;;;;72.32;28.27;;;0.90;99.90;;;;;;5115903;27;20039;-60
2023/01/24 09:25:51;;;;;;;75.63;29.30;;;1.00;99.90;;;;;;5114403;27;20047;-60
2023/01/24 09:28:20;;;;;;;82.88;32.95;;;1.10;99.90;;;;;;5117169;27;20051;-59
2023/01/24 09:30:50;;;;;;;103.30;34.67;;;1.10;99.90;;;;;;5112268;28;20054;-58
2023/01/24 09:33:18;;;;;;;111.57;34.85;;;1.20;99.90;;;;;;5112296;28;20046;-59
2023/01/24 09:35:57;;;;;;;97.47;33.30;;;1.30;99.90;;;;;;5108687;28;20051;-57
2023/01/24 09:38:27;;;;;;;97.20;36.43;;;1.30;99.90;;;;;;5102454;28;20043;-58
2023/01/24 09:41:09;;;;;;;99.25;35.65;;;1.40;99.90;;;;;;5112035;28;20323;-59
2023/01/24 09:43:48;;;;;;;118.00;35.97;;;1.40;99.90;;;;;;5111624;28;20034;-60
2023/01/24 09:46:41;;;;;;;94.30;34.38;;;1.60;99.90;;;;;;5110880;28;20035;-60
2023/01/24 09:49:15;;;;;;;131.63;37.80;;;1.60;99.90;;;;;;5145428;27;20047;-58
2023/01/24 09:51:52;;;;;;;229.10;39.33;;;1.50;99.90;;;;;;5112061;27;20044;-64
2023/01/24 09:54:35;;;;;;;155.70;40.80;;;1.60;99.90;;;;;;5093592;28;20394;-63
2023/01/24 09:57:13;;;;;;;;;;;1.70;99.90;;;;;;5112272;28;20047;-64
2023/01/24 09:59:44;;;;;;;122.32;36.88;;;1.70;99.90;;;;;;5091543;28;19927;-66
2023/01/24 10:02:17;;;;;;;132.88;37.55;;;1.80;99.90;;;;;;5092872;28;20047;-65
2023/01/24 10:04:49;;;;;;;133.05;40.35;;;1.90;99.90;;;;;;5093366;28;20048;-64
2023/01/24 10:07:23;;;;;;;160.93;39.03;;;1.90;99.90;;;;;;5099777;27;20398;-63
2023/01/24 10:10:15;;;;;;;152.13;39.03;;;1.90;99.90;;;;;;5127977;27;20295;-61
2023/01/24 10:13:22;;;;;;;144.50;38.28;;;1.90;99.90;;;;;;5100691;28;20043;-66
2023/01/24 10:16:16;;;;;;;149.95;38.33;;;1.90;99.90;;;;;;5111721;28;20044;-61
2023/01/24 10:19:01;;;;;;;163.35;38.10;;;2.00;99.90;;;;;;5124817;27;20039;-59
2023/01/24 10:22:00;;;;;;;164.77;44.95;;;2.00;99.90;;;;;;5094869;28;20047;-60
2023/01/24 10:24:32;;;;;;;182.38;40.40;;;2.00;99.90;;;;;;5091061;28;20491;-64
2023/01/24 10:27:01;;;;;;;143.10;40.00;;;2.00;99.90;;;;;;5091026;28;20044;-63
2023/01/24 10:29:31;;;;;;;125.22;37.50;;;2.10;99.90;;;;;;5092112;28;20036;-62
2023/01/24 10:32:05;;;;;;;128.55;37.75;;;2.10;99.90;;;;;;5111130;28;20884;-62
2023/01/24 10:34:43;;;;;;;140.38;41.40;;;2.20;99.90;;;;;;5072982;28;20048;-65
2023/01/24 10:37:24;;;;;;;128.60;38.53;;;2.30;99.90;;;;;;5100614;28;20043;-63
2023/01/24 10:39:52;;;;;;;127.55;38.90;;;2.30;99.90;;;;;;5110033;28;20047;-65
2023/01/24 10:42:22;;;;;;;137.45;42.08;;;2.40;99.90;;;;;;5106515;28;20035;-61
2023/01/24 10:44:53;;;;;;;115.15;36.72;;;2.40;99.90;;;;;;5107573;28;20062;-61
2023/01/24 10:47:26;;;;;;;138.23;41.90;;;2.50;99.90;;;;;;5112003;27;20490;-59
2023/01/24 10:50:03;;;;;;;136.65;40.97;;;2.40;99.90;;;;;;5131409;27;20100;-62
2023/01/24 10:52:34;;;;;;;124.22;39.50;;;2.50;99.90;;;;;;5092155;28;20047;-65
2023/01/24 10:55:18;;;;;;;129.05;41.15;;;2.50;99.90;;;;;;5110226;28;20043;-59
2023/01/24 10:57:52;;;;;;;123.75;41.13;;;2.60;99.90;;;;;;5091993;28;20055;-61
2023/01/24 11:00:33;;;;;;;191.63;45.30;;;2.70;99.90;;;;;;5110485;28;20047;-63
2023/01/24 11:03:04;;;;;;;126.82;41.53;;;2.70;99.90;;;;;;5118007;27;20047;-59
2023/01/24 11:05:39;;;;;;;129.98;41.80;;;2.80;99.90;;;;;;5108967;27;20053;-60
2023/01/24 11:08:20;;;;;;;119.65;38.83;;;2.90;99.90;;;;;;5109315;28;20052;-63
2023/01/24 11:10:59;;;;;;;128.13;38.97;;;2.80;99.90;;;;;;5092426;28;20040;-62
2023/01/24 11:13:33;;;;;;;126.23;42.70;;;2.90;99.90;;;;;;5109590;28;20509;-61
2023/01/24 11:16:31;;;;;;;125.38;40.35;;;2.90;99.90;;;;;;5092347;28;20512;-60
2023/01/24 11:19:02;;;;;;;114.40;40.08;;;3.00;99.90;;;;;;5109389;28;20056;-59
2023/01/24 11:21:48;;;;;;;132.70;39.88;;;3.00;99.90;;;;;;5106828;28;20056;-57
2023/01/24 11:24:16;;;;;;;121.10;40.47;;;3.00;99.90;;;;;;5108937;28;20056;-60
2023/01/24 11:26:55;;;;;;;120.40;43.10;;;3.10;99.90;;;;;;5091449;28;20051;-59
2023/01/24 11:29:23;;;;;;;115.38;42.30;;;3.10;99.90;;;;;;5122512;27;20047;-63
2023/01/24 11:32:01;;;;;;;117.45;39.47;;;3.20;99.90;;;;;;5110117;28;20066;-60
2023/01/24 11:34:56;;;;;;;125.13;41.63;;;3.30;99.90;;;;;;5110246;28;20048;-59
2023/01/24 11:37:57;;;;;;;117.82;38.97;;;3.30;99.90;;;;;;5103262;28;20048;-64
2023/01/24 11:40:52;;;;;;;268.83;108.97;;;3.40;99.90;;;;;;5091895;28;20487;-63
2023/01/24 11:43:23;;;;;;;147.93;56.78;;;3.50;99.90;;;;;;5109670;28;20035;-61
2023/01/24 11:46:00;;;;;;;122.32;39.33;;;3.50;99.90;;;;;;5109410;28;20620;-63
2023/01/24 11:48:58;;;;;;;108.30;39.85;;;3.50;99.90;;;;;;5106177;28;20039;-62
2023/01/24 11:51:57;;;;;;;117.93;41.42;;;3.60;99.90;;;;;;5108304;28;20047;-64
2023/01/24 11:54:42;;;;;;;103.65;38.13;;;3.60;99.90;;;;;;5108859;28;20052;-64
2023/01/24 11:57:34;;;;;;;105.00;38.17;;;3.70;99.90;;;;;;5125217;28;20040;-60
2023/01/24 12:00:15;;;;;;;118.57;39.60;;;3.90;99.90;;;;;;5110062;28;20058;-64
2023/01/24 12:03:08;;;;;;;115.63;38.58;;;4.00;99.90;;;;;;5109864;28;20043;-64
2023/01/24 12:06:05;;;;;;;98.30;38.65;;;4.00;99.90;;;;;;5109069;28;20049;-64
2023/01/24 12:08:52;;;;;;;113.13;37.80;;;4.00;99.90;;;;;;5104653;28;20044;-58
2023/01/24 12:11:32;;;;;;;120.90;38.88;;;4.00;99.90;;;;;;5109010;28;20517;-59
2023/01/24 12:14:09;;;;;;;110.28;38.33;;;4.10;99.90;;;;;;5109372;28;20040;-58
2023/01/24 12:16:58;;;;;;;108.45;39.10;;;4.20;99.90;;;;;;5109170;28;20035;-58
2023/01/24 12:20:04;;;;;;;104.72;36.95;;;4.20;99.90;;;;;;5103705;28;20047;-58
2023/01/24 12:22:33;;;;;;;88.88;35.13;;;4.20;99.90;;;;;;5108641;28;20067;-59
2023/01/24 12:25:10;;;;;;;102.82;37.00;;;4.30;99.90;;;;;;5106834;28;20051;-60
2023/01/24 12:27:40;;;;;;;99.75;34.83;;;4.30;99.90;;;;;;5089907;28;20474;-63
2023/01/24 12:30:24;;;;;;;102.13;36.08;;;4.30;99.90;;;;;;5085284;28;20064;-63
2023/01/24 12:33:02;;;;;;;86.90;34.08;;;4.30;99.90;;;;;;5076699;28;20044;-60
2023/01/24 12:35:35;;;;;;;85.68;34.92;;;4.40;99.90;;;;;;5080359;28;20043;-63
2023/01/24 12:38:20;;;;;;;85.30;31.65;;;4.40;99.90;;;;;;5111773;28;20058;-62
2023/01/24 12:41:10;;;;;;;91.07;34.30;;;4.50;99.90;;;;;;5110146;28;20059;-63
2023/01/24 12:43:57;;;;;;;85.70;34.50;;;4.50;99.90;;;;;;5112943;28;20051;-64
2023/01/24 12:46:30;;;;;;;88.63;34.20;;;4.60;99.90;;;;;;5097691;28;20390;-60
2023/01/24 12:49:17;;;;;;;87.55;34.80;;;4.60;99.90;;;;;;5074266;28;20050;-61
2023/01/24 12:52:07;;;;;;;83.82;33.20;;;4.60;99.90;;;;;;5106824;28;20036;-63
2023/01/24 12:55:25;;;;;;;81.03;33.53;;;4.60;99.90;;;;;;5093169;27;20050;-58
2023/01/24 12:58:04;;;;;;;76.82;32.30;;;4.70;99.90;;;;;;5092302;28;20047;-62
2023/01/24 13:01:09;;;;;;;82.07;34.45;;;4.60;99.90;;;;;;5110859;28;20054;-60
2023/01/24 13:03:47;;;;;;;88.07;32.60;;;4.70;99.90;;;;;;5116792;27;20466;-60
2023/01/24 13:06:25;;;;;;;83.85;34.88;;;4.80;99.90;;;;;;5103765;27;20036;-64
2023/01/24 13:09:14;;;;;;;82.07;32.95;;;4.80;99.90;;;;;;5093021;28;20054;-65
2023/01/24 13:11:46;;;;;;;78.73;33.03;;;4.80;99.90;;;;;;5110625;28;20048;-64
2023/01/24 13:14:25;;;;;;;81.15;31.23;;;4.90;99.90;;;;;;5092598;28;20743;-58
2023/01/24 13:17:20;;;;;;;70.15;30.70;;;5.00;99.90;;;;;;5096954;28;20080;-59
2023/01/24 13:19:48;;;;;;;75.05;30.42;;;5.00;99.90;;;;;;5093226;28;20051;-60
2023/01/24 13:22:33;;;;;;;78.57;30.77;;;5.00;99.90;;;;;;5105416;27;20052;-59
2023/01/24 13:25:28;;;;;;;72.43;29.90;;;5.00;99.90;;;;;;5100101;27;20040;-58
2023/01/24 13:28:15;;;;;;;72.75;30.23;;;5.10;99.90;;;;;;5097793;28;20047;-60
2023/01/24 13:31:04;;;;;;;70.28;30.48;;;5.10;99.90;;;;;;5091417;27;20048;-58
2023/01/24 13:33:40;;;;;;;77.28;30.17;;;5.10;99.90;;;;;;5103224;27;20410;-57
2023/01/24 13:36:08;;;;;;;67.60;29.67;;;5.10;99.90;;;;;;5103022;28;20051;-58
2023/01/24 13:38:42;;;;;;;69.25;29.92;;;5.10;99.90;;;;;;5101484;27;20582;-58
2023/01/24 13:41:26;;;;;;;66.45;29.23;;;5.10;99.90;;;;;;5102043;28;20039;-59
2023/01/24 13:44:15;;;;;;;64.90;28.55;;;5.10;99.90;;;;;;5101794;27;20044;-59
2023/01/24 13:46:46;;;;;;;69.28;30.02;;;5.10;99.90;;;;;;5110623;28;20046;-59
2023/01/24 13:49:16;;;;;;;63.38;29.40;;;5.10;99.90;;;;;;5116663;27;20047;-58